Time;durP1;ratioP1;P1;durP2;ratioP2;P2;SDS_P1;SDS_P2;PMS_P1;PMS_P2;Temp;Humidity;BMP_temperature;BMP_pressure;BME280_temperature;BME280_humidity;BME280_pressure;Samples;Min_cycle;Max_cycle;Signal;HPM_P1;HPM_P2
2021/09/09 00:01:29;;;;;;;16.17;11.25;;;;;;;;;;5074789;28;20025;-63
2021/09/09 00:03:55;;;;;;;16.65;10.63;;;;;;;;;;5074313;28;20016;-64
2021/09/09 00:06:21;;;;;;;18.50;11.00;;;;;;;;;;5074618;28;20039;-63
2021/09/09 00:08:47;;;;;;;15.07;10.93;;;;;;;;;;5075055;28;20096;-64
2021/09/09 00:11:13;;;;;;;15.43;11.35;;;;;;;;;;5074666;28;20039;-68
2021/09/09 00:13:40;;;;;;;20.67;11.70;;;;;;;;;;5074722;28;20103;-63
2021/09/09 00:16:06;;;;;;;17.45;11.60;;;;;;;;;;5073149;28;20472;-64
2021/09/09 00:18:32;;;;;;;27.73;11.57;;;;;;;;;;5073664;28;20411;-70
2021/09/09 00:20:58;;;;;;;19.02;11.68;;;;;;;;;;5074510;28;20053;-65
2021/09/09 00:23:25;;;;;;;18.27;12.45;;;;;;;;;;5073785;28;20083;-65
2021/09/09 00:25:51;;;;;;;15.73;11.48;;;;;;;;;;5073927;28;20025;-64
2021/09/09 00:28:17;;;;;;;18.52;12.48;;;;;;;;;;5074551;28;20037;-65
2021/09/09 00:30:43;;;;;;;15.30;11.52;;;;;;;;;;5056807;28;20036;-64
2021/09/09 00:33:09;;;;;;;16.52;10.98;;;;;;;;;;5074652;28;20032;-65
2021/09/09 00:35:35;;;;;;;17.23;11.68;;;;;;;;;;5074672;28;20029;-64
2021/09/09 00:38:01;;;;;;;15.90;11.68;;;;;;;;;;5074055;28;20037;-64
2021/09/09 00:40:28;;;;;;;16.92;11.75;;;;;;;;;;5074234;28;20040;-66
2021/09/09 00:42:54;;;;;;;15.50;10.85;;;;;;;;;;5074052;28;20369;-66
2021/09/09 00:45:20;;;;;;;18.17;11.48;;;;;;;;;;5073984;28;20039;-64
2021/09/09 00:47:46;;;;;;;13.30;10.80;;;;;;;;;;5073977;28;20029;-64
2021/09/09 00:50:12;;;;;;;14.13;10.68;;;;;;;;;;5074051;28;20070;-64
2021/09/09 00:52:40;;;;;;;13.90;10.63;;;;;;;;;;5070814;28;20012;-64
2021/09/09 00:55:06;;;;;;;17.25;11.13;;;;;;;;;;5053974;28;20094;-63
2021/09/09 00:57:36;;;;;;;14.43;10.77;;;;;;;;;;5053697;28;20040;-64
2021/09/09 01:00:03;;;;;;;14.80;10.20;;;;;;;;;;5053655;28;20017;-64
2021/09/09 01:02:29;;;;;;;17.20;11.20;;;;;;;;;;5053699;28;20448;-67
2021/09/09 01:04:55;;;;;;;14.48;10.40;;;;;;;;;;5053606;28;20025;-68
2021/09/09 01:07:21;;;;;;;14.60;10.50;;;;;;;;;;5053593;28;20029;-64
2021/09/09 01:09:47;;;;;;;14.60;10.88;;;;;;;;;;5061217;28;20534;-64
2021/09/09 01:12:13;;;;;;;15.30;10.80;;;;;;;;;;5072305;28;20024;-64
2021/09/09 01:14:40;;;;;;;15.00;10.68;;;;;;;;;;5073480;28;20106;-64
2021/09/09 01:17:06;;;;;;;14.95;10.10;;;;;;;;;;5073252;28;20127;-64
2021/09/09 01:19:33;;;;;;;12.65;10.43;;;;;;;;;;5059333;28;20025;-65
2021/09/09 01:21:59;;;;;;;17.15;10.18;;;;;;;;;;5055597;28;20024;-64
2021/09/09 01:24:25;;;;;;;14.48;9.15;;;;;;;;;;5055351;28;20056;-64
2021/09/09 01:26:54;;;;;;;14.32;10.13;;;;;;;;;;5073043;28;20086;-64
2021/09/09 01:29:21;;;;;;;12.85;10.07;;;;;;;;;;5073154;28;20029;-65
2021/09/09 01:31:47;;;;;;;12.85;9.98;;;;;;;;;;5072994;28;20033;-65
2021/09/09 01:34:13;;;;;;;15.05;10.48;;;;;;;;;;5073328;28;20036;-64
2021/09/09 01:36:39;;;;;;;16.75;11.80;;;;;;;;;;5072440;28;20043;-64
2021/09/09 01:39:05;;;;;;;15.50;10.57;;;;;;;;;;5073162;28;20469;-64
2021/09/09 01:41:31;;;;;;;16.10;10.57;;;;;;;;;;5073433;28;20066;-64
2021/09/09 01:43:57;;;;;;;14.43;9.75;;;;;;;;;;5072069;28;20468;-64
2021/09/09 01:46:23;;;;;;;13.77;10.63;;;;;;;;;;5072866;28;20028;-64
2021/09/09 01:48:49;;;;;;;14.90;11.13;;;;;;;;;;5073012;28;20021;-65
2021/09/09 01:51:15;;;;;;;11.68;9.95;;;;;;;;;;5072856;28;20032;-65
2021/09/09 01:53:41;;;;;;;13.13;10.35;;;;;;;;;;5073096;28;20032;-64
2021/09/09 01:56:07;;;;;;;17.15;11.50;;;;;;;;;;5072910;28;20040;-64
2021/09/09 01:58:34;;;;;;;15.57;10.45;;;;;;;;;;5071567;28;20028;-64
2021/09/09 02:01:00;;;;;;;14.15;11.00;;;;;;;;;;5072910;28;20028;-64
2021/09/09 02:03:26;;;;;;;14.88;11.60;;;;;;;;;;5071658;28;20020;-65
2021/09/09 02:05:52;;;;;;;16.00;12.25;;;;;;;;;;5072690;28;20033;-64
2021/09/09 02:08:18;;;;;;;14.88;11.32;;;;;;;;;;5072707;28;20067;-66
2021/09/09 02:10:45;;;;;;;15.82;11.60;;;;;;;;;;5070308;28;20025;-65
2021/09/09 02:13:11;;;;;;;16.02;11.70;;;;;;;;;;5071525;28;20469;-64
2021/09/09 02:15:37;;;;;;;18.30;12.85;;;;;;;;;;5072146;28;20067;-67
2021/09/09 02:18:03;;;;;;;13.23;9.95;;;;;;;;;;5072333;28;20112;-65
2021/09/09 02:20:29;;;;;;;24.33;12.05;;;;;;;;;;5054620;28;20115;-65
2021/09/09 02:22:55;;;;;;;16.73;12.00;;;;;;;;;;5054802;28;20464;-65
2021/09/09 02:25:21;;;;;;;13.68;11.63;;;;;;;;;;5072434;28;20524;-64
2021/09/09 02:27:47;;;;;;;20.30;12.85;;;;;;;;;;5071452;28;20033;-65
2021/09/09 02:30:14;;;;;;;16.35;12.48;;;;;;;;;;5071337;28;20457;-65
2021/09/09 02:32:40;;;;;;;16.58;11.90;;;;;;;;;;5071287;28;20036;-69
2021/09/09 02:35:06;;;;;;;21.65;13.30;;;;;;;;;;5071173;28;20463;-64
2021/09/09 02:37:32;;;;;;;20.30;13.10;;;;;;;;;;5072158;28;20052;-64
2021/09/09 02:39:58;;;;;;;10.48;7.90;;;;;;;;;;5072625;28;20016;-64
2021/09/09 02:42:24;;;;;;;21.48;13.40;;;;;;;;;;5072353;28;20541;-64
2021/09/09 02:44:50;;;;;;;16.58;12.15;;;;;;;;;;5071789;28;20033;-64
2021/09/09 02:47:16;;;;;;;19.45;13.07;;;;;;;;;;5072735;28;20070;-64
2021/09/09 02:49:42;;;;;;;16.45;13.05;;;;;;;;;;5076455;28;20028;-65
2021/09/09 02:52:08;;;;;;;16.25;12.27;;;;;;;;;;5076196;28;20020;-65
2021/09/09 02:54:34;;;;;;;21.27;11.35;;;;;;;;;;5074999;28;20139;-65
2021/09/09 02:57:00;;;;;;;17.77;12.82;;;;;;;;;;5076114;28;20040;-64
2021/09/09 02:59:26;;;;;;;14.10;12.02;;;;;;;;;;5076075;28;20021;-64
2021/09/09 03:01:52;;;;;;;16.88;12.15;;;;;;;;;;5074718;28;20033;-64
2021/09/09 03:04:18;;;;;;;18.25;13.88;;;;;;;;;;5075808;28;20025;-66
2021/09/09 03:06:44;;;;;;;18.13;13.38;;;;;;;;;;5076012;28;20100;-64
2021/09/09 03:09:10;;;;;;;21.80;13.38;;;;;;;;;;5075776;28;20453;-64
2021/09/09 03:11:36;;;;;;;19.25;14.77;;;;;;;;;;5076071;28;20024;-64
2021/09/09 03:14:02;;;;;;;18.50;13.73;;;;;;;;;;5076176;28;20025;-64
2021/09/09 03:16:27;;;;;;;20.27;14.50;;;;;;;;;;5056899;28;20036;-64
2021/09/09 03:18:53;;;;;;;23.45;14.18;;;;;;;;;;5075696;28;20024;-63
2021/09/09 03:21:19;;;;;;;23.70;14.30;;;;;;;;;;5075715;28;20028;-63
2021/09/09 03:23:45;;;;;;;21.65;14.38;;;;;;;;;;5075322;28;20072;-65
2021/09/09 03:26:11;;;;;;;21.80;14.82;;;;;;;;;;5057643;28;20480;-64
2021/09/09 03:28:37;;;;;;;24.20;16.52;;;;;;;;;;5075572;28;20490;-64
2021/09/09 03:31:03;;;;;;;18.88;14.65;;;;;;;;;;5075505;28;20357;-64
2021/09/09 03:33:29;;;;;;;20.88;15.10;;;;;;;;;;5075240;28;20028;-64
2021/09/09 03:35:55;;;;;;;20.25;14.98;;;;;;;;;;5075398;28;20445;-67
2021/09/09 03:38:21;;;;;;;23.58;14.88;;;;;;;;;;5075396;28;20032;-65
2021/09/09 03:40:47;;;;;;;22.30;14.93;;;;;;;;;;5075329;28;20021;-65
2021/09/09 03:43:13;;;;;;;19.40;15.50;;;;;;;;;;5075693;28;20021;-64
2021/09/09 03:45:39;;;;;;;20.92;15.77;;;;;;;;;;5057656;28;20372;-66
2021/09/09 03:48:05;;;;;;;22.75;16.38;;;;;;;;;;5057195;28;20035;-64
2021/09/09 03:50:31;;;;;;;22.52;16.08;;;;;;;;;;5075213;28;20025;-64
2021/09/09 03:52:57;;;;;;;20.60;15.30;;;;;;;;;;5061297;28;20391;-66
2021/09/09 03:55:23;;;;;;;24.58;15.93;;;;;;;;;;5036992;28;20025;-64
2021/09/09 03:57:49;;;;;;;20.52;15.35;;;;;;;;;;5054864;28;20037;-64
2021/09/09 04:00:15;;;;;;;22.75;16.02;;;;;;;;;;5055436;28;20048;-67
2021/09/09 04:02:41;;;;;;;21.90;15.38;;;;;;;;;;5055084;28;20029;-64
2021/09/09 04:05:08;;;;;;;22.05;15.80;;;;;;;;;;5055100;28;20108;-65
2021/09/09 04:07:34;;;;;;;22.95;15.32;;;;;;;;;;5054890;28;20025;-65
2021/09/09 04:10:00;;;;;;;24.55;16.20;;;;;;;;;;5054699;28;20365;-65
2021/09/09 04:12:26;;;;;;;21.48;16.05;;;;;;;;;;5055064;28;20021;-65
2021/09/09 04:14:52;;;;;;;22.48;17.30;;;;;;;;;;5054902;28;20090;-64
2021/09/09 04:17:18;;;;;;;21.85;16.67;;;;;;;;;;5059298;28;20504;-64
2021/09/09 04:19:44;;;;;;;22.40;16.98;;;;;;;;;;5074187;28;20484;-66
2021/09/09 04:22:11;;;;;;;24.23;16.83;;;;;;;;;;5074447;28;20464;-64
2021/09/09 04:24:37;;;;;;;28.90;16.70;;;;;;;;;;5073971;28;20048;-66
2021/09/09 04:27:03;;;;;;;24.17;16.42;;;;;;;;;;5074320;28;20035;-65
2021/09/09 04:29:29;;;;;;;25.90;18.05;;;;;;;;;;5073956;28;20116;-65
2021/09/09 04:31:56;;;;;;;23.77;16.92;;;;;;;;;;5074287;28;20139;-68
2021/09/09 04:34:22;;;;;;;24.23;17.00;;;;;;;;;;5072063;28;20085;-65
2021/09/09 04:36:48;;;;;;;25.50;16.90;;;;;;;;;;5074093;28;20028;-64
2021/09/09 04:39:14;;;;;;;25.40;17.60;;;;;;;;;;5073891;28;20028;-64
2021/09/09 04:41:40;;;;;;;34.88;17.88;;;;;;;;;;5074187;28;20106;-64
2021/09/09 04:44:06;;;;;;;28.13;16.23;;;;;;;;;;5074170;28;20346;-65
2021/09/09 04:46:32;;;;;;;26.63;17.38;;;;;;;;;;5073812;28;20476;-64
2021/09/09 04:48:58;;;;;;;22.40;16.95;;;;;;;;;;5073899;28;20033;-64
2021/09/09 04:51:25;;;;;;;24.55;17.65;;;;;;;;;;5073865;28;20036;-64
2021/09/09 04:53:51;;;;;;;23.08;17.05;;;;;;;;;;5073810;28;20534;-64
2021/09/09 04:56:17;;;;;;;28.15;18.27;;;;;;;;;;5072408;28;20051;-64
2021/09/09 04:58:43;;;;;;;22.38;16.40;;;;;;;;;;5073704;28;20536;-64
2021/09/09 05:01:09;;;;;;;19.42;13.55;;;;;;;;;;5073654;28;20490;-64
2021/09/09 05:03:35;;;;;;;22.65;15.38;;;;;;;;;;5072633;28;20028;-64
2021/09/09 05:06:01;;;;;;;21.83;17.20;;;;;;;;;;5073645;28;20025;-65
2021/09/09 05:08:27;;;;;;;23.67;16.73;;;;;;;;;;5073707;28;20048;-64
2021/09/09 05:10:53;;;;;;;26.58;16.90;;;;;;;;;;5072820;28;20414;-64
2021/09/09 05:13:19;;;;;;;23.90;16.33;;;;;;;;;;5072899;28;20498;-65
2021/09/09 05:15:45;;;;;;;25.85;18.08;;;;;;;;;;5073384;28;20031;-64
2021/09/09 05:18:11;;;;;;;29.85;18.85;;;;;;;;;;5073340;28;20107;-63
2021/09/09 05:20:37;;;;;;;27.73;19.65;;;;;;;;;;5073389;28;20377;-64
2021/09/09 05:23:03;;;;;;;27.73;19.50;;;;;;;;;;5073233;28;20036;-64
2021/09/09 05:25:29;;;;;;;29.90;19.23;;;;;;;;;;5073222;28;20048;-64
2021/09/09 05:27:55;;;;;;;27.77;19.50;;;;;;;;;;5073244;28;20028;-64
2021/09/09 05:30:21;;;;;;;30.15;16.73;;;;;;;;;;5071992;28;20032;-64
2021/09/09 05:32:47;;;;;;;34.47;13.82;;;;;;;;;;5055371;28;20031;-65
2021/09/09 05:35:13;;;;;;;25.98;15.63;;;;;;;;;;5072881;28;20020;-65
2021/09/09 05:37:39;;;;;;;26.83;16.42;;;;;;;;;;5073077;28;20040;-66
2021/09/09 05:40:06;;;;;;;26.25;16.00;;;;;;;;;;5073282;28;20017;-65
2021/09/09 05:42:32;;;;;;;21.38;15.68;;;;;;;;;;5052129;28;20484;-65
2021/09/09 05:44:58;;;;;;;28.08;16.95;;;;;;;;;;5072565;28;20466;-65
2021/09/09 05:47:24;;;;;;;29.92;18.40;;;;;;;;;;5072903;28;20103;-66
2021/09/09 05:49:50;;;;;;;26.05;17.48;;;;;;;;;;5073146;28;20376;-65
2021/09/09 05:52:16;;;;;;;24.00;17.33;;;;;;;;;;5073086;28;20025;-65
2021/09/09 05:54:42;;;;;;;21.63;17.23;;;;;;;;;;5073046;28;20060;-69
2021/09/09 05:57:08;;;;;;;23.60;15.88;;;;;;;;;;5072883;28;20089;-68
2021/09/09 05:59:34;;;;;;;22.25;16.92;;;;;;;;;;5072799;28;20032;-65
2021/09/09 06:02:00;;;;;;;24.70;16.40;;;;;;;;;;5073220;28;20020;-71
2021/09/09 06:04:28;;;;;;;24.08;11.38;;;;;;;;;;5073546;28;20032;-73
2021/09/09 06:06:55;;;;;;;31.98;14.98;;;;;;;;;;5054956;28;20028;-74
2021/09/09 06:09:21;;;;;;;35.58;14.65;;;;;;;;;;5072991;28;20032;-74
2021/09/09 06:11:47;;;;;;;27.40;16.42;;;;;;;;;;5072651;28;20024;-68
2021/09/09 06:14:14;;;;;;;38.03;16.67;;;;;;;;;;5072656;28;20023;-67
2021/09/09 06:16:40;;;;;;;24.92;16.25;;;;;;;;;;5072067;28;20032;-67
2021/09/09 06:19:06;;;;;;;23.50;12.60;;;;;;;;;;5072448;28;20025;-68
2021/09/09 06:21:32;;;;;;;38.92;10.65;;;;;;;;;;5073251;28;20112;-68
2021/09/09 06:23:58;;;;;;;24.00;14.43;;;;;;;;;;5076349;28;20482;-64
2021/09/09 06:26:23;;;;;;;23.50;16.10;;;;;;;;;;5058513;28;20020;-68
2021/09/09 06:28:50;;;;;;;21.02;16.13;;;;;;;;;;5076592;28;20095;-68
2021/09/09 06:31:16;;;;;;;26.52;15.20;;;;;;;;;;5076594;28;20388;-67
2021/09/09 06:33:42;;;;;;;18.42;12.05;;;;;;;;;;5058519;28;20059;-67
2021/09/09 06:36:08;;;;;;;21.00;15.88;;;;;;;;;;5058477;28;20024;-67
2021/09/09 06:38:34;;;;;;;21.83;15.88;;;;;;;;;;5076214;28;20115;-67
2021/09/09 06:41:00;;;;;;;23.83;15.15;;;;;;;;;;5076292;28;20021;-67
2021/09/09 06:43:26;;;;;;;19.50;14.27;;;;;;;;;;5058295;28;20115;-67
2021/09/09 06:45:52;;;;;;;18.38;12.60;;;;;;;;;;5076149;28;20107;-67
2021/09/09 06:48:18;;;;;;;16.20;11.10;;;;;;;;;;5058232;28;20029;-67
2021/09/09 06:50:44;;;;;;;20.55;12.43;;;;;;;;;;5075978;28;20020;-67
2021/09/09 06:53:10;;;;;;;19.13;11.40;;;;;;;;;;5076062;28;20046;-67
2021/09/09 06:55:36;;;;;;;16.52;11.15;;;;;;;;;;5075829;28;20032;-67
2021/09/09 06:58:03;;;;;;;28.25;12.23;;;;;;;;;;5058119;28;20033;-67
2021/09/09 07:00:29;;;;;;;23.63;13.60;;;;;;;;;;5075711;28;20024;-66
2021/09/09 07:02:55;;;;;;;27.23;14.57;;;;;;;;;;5076094;28;20028;-71
2021/09/09 07:05:21;;;;;;;23.90;14.57;;;;;;;;;;5076000;28;20029;-70
2021/09/09 07:07:47;;;;;;;28.70;15.27;;;;;;;;;;5076333;28;20024;-71
2021/09/09 07:10:13;;;;;;;25.63;14.80;;;;;;;;;;5076187;28;20028;-71
2021/09/09 07:12:39;;;;;;;22.63;15.70;;;;;;;;;;5075844;28;20036;-70
2021/09/09 07:15:05;;;;;;;25.05;15.15;;;;;;;;;;5075271;28;20604;-72
2021/09/09 07:17:31;;;;;;;26.75;15.55;;;;;;;;;;5074999;28;20107;-70
2021/09/09 07:19:59;;;;;;;19.67;15.32;;;;;;;;;;5075535;28;20031;-72
2021/09/09 07:22:25;;;;;;;19.75;14.93;;;;;;;;;;5075399;28;20127;-70
2021/09/09 07:24:51;;;;;;;23.30;14.90;;;;;;;;;;5056846;28;20131;-71
2021/09/09 07:27:17;;;;;;;24.33;14.98;;;;;;;;;;5075642;28;20044;-71
2021/09/09 07:29:43;;;;;;;18.77;15.40;;;;;;;;;;5076013;28;20028;-71
2021/09/09 07:32:09;;;;;;;27.52;15.48;;;;;;;;;;5057929;28;20036;-71
2021/09/09 07:34:35;;;;;;;26.10;15.27;;;;;;;;;;5074646;28;20533;-70
2021/09/09 07:37:01;;;;;;;21.50;15.40;;;;;;;;;;5057966;28;20039;-71
2021/09/09 07:39:27;;;;;;;22.95;16.45;;;;;;;;;;5058970;28;20115;-76
2021/09/09 07:41:53;;;;;;;21.08;15.27;;;;;;;;;;5057955;28;20031;-75
2021/09/09 07:44:19;;;;;;;24.20;15.90;;;;;;;;;;5075634;28;20085;-74
2021/09/09 07:46:45;;;;;;;22.85;14.90;;;;;;;;;;5057977;28;20551;-74
2021/09/09 07:49:15;;;;;;;22.48;16.52;;;;;;;;;;5058570;28;20031;-75
2021/09/09 07:51:41;;;;;;;30.58;14.85;;;;;;;;;;5057877;28;20021;-71
2021/09/09 07:54:07;;;;;;;26.08;14.75;;;;;;;;;;5057691;28;20082;-76
2021/09/09 07:56:33;;;;;;;26.88;15.27;;;;;;;;;;5075763;28;21939;-75
2021/09/09 07:58:59;;;;;;;22.90;14.25;;;;;;;;;;5075490;28;20098;-73
2021/09/09 08:01:25;;;;;;;27.45;13.65;;;;;;;;;;5075645;28;20025;-75
2021/09/09 08:03:51;;;;;;;26.17;13.93;;;;;;;;;;5057426;28;20028;-74
2021/09/09 08:06:17;;;;;;;27.30;14.10;;;;;;;;;;5075543;28;20480;-74
2021/09/09 08:08:43;;;;;;;29.42;13.90;;;;;;;;;;5057370;28;20029;-71
2021/09/09 08:11:09;;;;;;;22.50;14.00;;;;;;;;;;5075055;28;20025;-74
2021/09/09 08:13:35;;;;;;;31.63;15.02;;;;;;;;;;5075361;28;20035;-75
2021/09/09 08:16:02;;;;;;;32.10;13.95;;;;;;;;;;5075411;28;20021;-75
2021/09/09 08:18:28;;;;;;;23.92;14.05;;;;;;;;;;5057468;28;20131;-75
2021/09/09 08:20:56;;;;;;;30.38;13.32;;;;;;;;;;5057178;28;20116;-70
2021/09/09 08:23:23;;;;;;;22.70;14.32;;;;;;;;;;5073426;28;20021;-71
2021/09/09 08:25:49;;;;;;;26.23;13.73;;;;;;;;;;5054853;28;20033;-71
2021/09/09 08:28:18;;;;;;;29.38;13.65;;;;;;;;;;5036777;28;20117;-72
2021/09/09 08:30:47;;;;;;;34.17;13.50;;;;;;;;;;5054726;28;20067;-68
2021/09/09 08:33:13;;;;;;;28.77;12.65;;;;;;;;;;5037189;28;20029;-64
2021/09/09 08:35:43;;;;;;;26.25;13.02;;;;;;;;;;5036360;28;20053;-64
2021/09/09 08:38:09;;;;;;;17.83;11.45;;;;;;;;;;5054272;28;20112;-64
2021/09/09 08:40:39;;;;;;;21.63;12.32;;;;;;;;;;5036456;28;20083;-70
2021/09/09 08:43:06;;;;;;;22.85;12.10;;;;;;;;;;5054910;28;20127;-71
2021/09/09 08:45:32;;;;;;;17.90;12.10;;;;;;;;;;5053387;28;20013;-71
2021/09/09 08:48:01;;;;;;;19.02;12.30;;;;;;;;;;5054673;28;20033;-71
2021/09/09 08:50:27;;;;;;;19.17;11.95;;;;;;;;;;5036846;28;20028;-72
2021/09/09 08:52:53;;;;;;;20.75;13.40;;;;;;;;;;5054469;28;20038;-71
2021/09/09 08:55:20;;;;;;;28.45;13.63;;;;;;;;;;5054429;28;20389;-72
2021/09/09 08:57:46;;;;;;;22.48;13.65;;;;;;;;;;5036464;28;20162;-74
2021/09/09 09:00:12;;;;;;;21.60;13.18;;;;;;;;;;5054575;28;20053;-64
2021/09/09 09:02:54;;;;;;;19.38;12.75;;;;;;;;;;5054140;28;20041;-66
2021/09/09 09:05:21;;;;;;;24.23;12.43;;;;;;;;;;5054005;28;20017;-67
2021/09/09 09:07:55;;;;;;;16.83;12.13;;;;;;;;;;5053645;28;20480;-67
2021/09/09 09:10:21;;;;;;;26.45;12.48;;;;;;;;;;5053436;28;20105;-67
2021/09/09 09:12:48;;;;;;;18.95;12.77;;;;;;;;;;5053687;28;20100;-67
2021/09/09 09:15:19;;;;;;;17.45;12.50;;;;;;;;;;5053498;28;20017;-67
2021/09/09 09:17:52;;;;;;;22.00;12.30;;;;;;;;;;5053527;28;20486;-67
2021/09/09 09:20:18;;;;;;;22.02;13.05;;;;;;;;;;5053342;28;20488;-68
2021/09/09 09:22:45;;;;;;;20.17;12.55;;;;;;;;;;5053342;28;20033;-69
2021/09/09 09:25:11;;;;;;;26.35;13.93;;;;;;;;;;5049957;28;20045;-69
2021/09/09 09:27:45;;;;;;;21.33;13.57;;;;;;;;;;5045084;28;20107;-62
2021/09/09 09:30:12;;;;;;;18.25;11.95;;;;;;;;;;5053463;28;20383;-61
2021/09/09 09:32:48;;;;;;;29.42;13.63;;;;;;;;;;5053688;28;20032;-61
2021/09/09 09:35:21;;;;;;;24.42;14.45;;;;;;;;;;5053304;28;20025;-61
2021/09/09 09:37:51;;;;;;;26.00;14.85;;;;;;;;;;5053222;28;20036;-61
2021/09/09 09:40:30;;;;;;;24.73;13.80;;;;;;;;;;5053109;28;20112;-71
2021/09/09 09:42:56;;;;;;;22.35;13.82;;;;;;;;;;5053832;28;20064;-70
2021/09/09 09:45:22;;;;;;;24.15;14.45;;;;;;;;;;5053651;28;20029;-70
2021/09/09 09:47:48;;;;;;;22.80;14.02;;;;;;;;;;5053431;28;20028;-70
2021/09/09 09:50:17;;;;;;;24.63;14.18;;;;;;;;;;5053427;28;20461;-70
2021/09/09 09:52:43;;;;;;;20.77;13.73;;;;;;;;;;5053526;28;20033;-70
2021/09/09 09:55:11;;;;;;;28.50;14.65;;;;;;;;;;5053514;28;20025;-70
2021/09/09 09:57:57;;;;;;;27.55;15.73;;;;;;;;;;5052841;28;20065;-71
2021/09/09 10:00:23;;;;;;;22.75;15.32;;;;;;;;;;5053644;28;20369;-70
2021/09/09 10:02:51;;;;;;;24.98;16.30;;;;;;;;;;5035508;28;20029;-71
2021/09/09 10:05:17;;;;;;;22.35;15.15;;;;;;;;;;5053303;28;20380;-70
2021/09/09 10:07:43;;;;;;;27.55;16.08;;;;;;;;;;5035704;28;20024;-70
2021/09/09 10:10:09;;;;;;;24.40;15.70;;;;;;;;;;5053412;28;20491;-71
2021/09/09 10:12:35;;;;;;;29.75;15.07;;;;;;;;;;5034805;28;20025;-66
2021/09/09 10:15:02;;;;;;;21.33;14.00;;;;;;;;;;5052693;28;20031;-65
2021/09/09 10:17:28;;;;;;;24.85;14.18;;;;;;;;;;5034450;28;20033;-68
2021/09/09 10:19:56;;;;;;;25.92;15.85;;;;;;;;;;5052706;28;20029;-66
2021/09/09 10:22:23;;;;;;;24.55;14.57;;;;;;;;;;5052746;28;20021;-67
2021/09/09 10:25:12;;;;;;;23.95;14.65;;;;;;;;;;5065622;28;20053;-67
2021/09/09 10:27:42;;;;;;;22.30;13.80;;;;;;;;;;5072539;28;20072;-67
2021/09/09 10:30:18;;;;;;;18.75;12.80;;;;;;;;;;5072494;28;20103;-67
2021/09/09 10:32:47;;;;;;;24.65;11.95;;;;;;;;;;5072815;28;20024;-65
2021/09/09 10:35:16;;;;;;;22.70;11.23;;;;;;;;;;5072675;28;20020;-64
2021/09/09 10:37:46;;;;;;;17.25;11.93;;;;;;;;;;5072470;28;20106;-67
2021/09/09 10:40:30;;;;;;;17.83;10.65;;;;;;;;;;5072569;28;20025;-68
2021/09/09 10:42:57;;;;;;;15.25;9.98;;;;;;;;;;5072553;28;20025;-67
2021/09/09 10:45:36;;;;;;;17.42;10.80;;;;;;;;;;5072559;28;20021;-64
2021/09/09 10:48:05;;;;;;;18.83;9.77;;;;;;;;;;5072301;28;20021;-65
2021/09/09 10:50:31;;;;;;;16.40;10.10;;;;;;;;;;5054442;28;20108;-65
2021/09/09 10:53:03;;;;;;;17.52;9.82;;;;;;;;;;5072418;28;20111;-65
2021/09/09 10:55:29;;;;;;;;;;;;;;;;;;5073391;28;20013;-68
2021/09/09 10:58:14;;;;;;;14.90;9.80;;;;;;;;;;5054592;28;19935;-67
2021/09/09 11:01:02;;;;;;;15.20;9.52;;;;;;;;;;5072468;28;20032;-66
2021/09/09 11:03:37;;;;;;;17.67;10.25;;;;;;;;;;5072389;28;20029;-68
2021/09/09 11:06:04;;;;;;;14.93;10.48;;;;;;;;;;5072540;28;20029;-67
2021/09/09 11:08:30;;;;;;;48.63;11.02;;;;;;;;;;5073263;28;20024;-69
2021/09/09 11:10:56;;;;;;;21.88;10.90;;;;;;;;;;5076033;28;20028;-69
2021/09/09 11:13:23;;;;;;;29.08;11.20;;;;;;;;;;5048548;28;20425;-68
2021/09/09 11:15:49;;;;;;;21.90;10.23;;;;;;;;;;5067452;28;20017;-67
2021/09/09 11:18:23;;;;;;;20.35;9.70;;;;;;;;;;5059244;28;20032;-69
2021/09/09 11:20:49;;;;;;;36.88;9.82;;;;;;;;;;5076013;28;20028;-68
2021/09/09 11:23:15;;;;;;;14.48;8.10;;;;;;;;;;5075514;28;20086;-70
2021/09/09 11:25:41;;;;;;;16.10;8.93;;;;;;;;;;5075135;28;20072;-68
2021/09/09 11:28:17;;;;;;;10.70;7.00;;;;;;;;;;5075278;28;20595;-67
2021/09/09 11:30:43;;;;;;;12.05;7.65;;;;;;;;;;5058055;28;20473;-68
2021/09/09 11:33:09;;;;;;;19.50;8.35;;;;;;;;;;5058154;28;20025;-69
2021/09/09 11:35:36;;;;;;;12.48;8.52;;;;;;;;;;5075344;28;20028;-69
2021/09/09 11:38:02;;;;;;;14.75;8.65;;;;;;;;;;5060591;28;20032;-69
2021/09/09 11:40:28;;;;;;;18.67;8.95;;;;;;;;;;5055665;28;20020;-70
2021/09/09 11:43:13;;;;;;;17.13;10.50;;;;;;;;;;5055761;28;20107;-70
2021/09/09 11:45:39;;;;;;;15.93;8.57;;;;;;;;;;5071882;28;20472;-70
2021/09/09 11:48:06;;;;;;;14.55;8.25;;;;;;;;;;5064745;28;20036;-70
2021/09/09 11:50:45;;;;;;;12.90;8.45;;;;;;;;;;5055415;28;20036;-69
2021/09/09 11:53:11;;;;;;;18.70;8.65;;;;;;;;;;5055548;28;20388;-70
2021/09/09 11:55:37;;;;;;;17.17;8.80;;;;;;;;;;5070217;28;20095;-69
2021/09/09 11:58:03;;;;;;;18.95;9.20;;;;;;;;;;5075681;28;20024;-70
2021/09/09 12:00:29;;;;;;;15.38;8.35;;;;;;;;;;5057463;28;20127;-70
2021/09/09 12:02:55;;;;;;;10.18;7.60;;;;;;;;;;5075458;28;20491;-69
2021/09/09 12:05:23;;;;;;;15.40;8.15;;;;;;;;;;5074603;28;20040;-70
2021/09/09 12:07:52;;;;;;;21.38;7.95;;;;;;;;;;5074760;28;20483;-70
2021/09/09 12:10:22;;;;;;;36.75;8.45;;;;;;;;;;5076494;28;20468;-70
2021/09/09 12:12:55;;;;;;;20.60;7.88;;;;;;;;;;5084924;28;20028;-70
2021/09/09 12:15:23;;;;;;;14.02;7.38;;;;;;;;;;5067679;28;20027;-70
2021/09/09 12:17:49;;;;;;;15.40;7.85;;;;;;;;;;5058536;28;20098;-68
2021/09/09 12:20:25;;;;;;;14.02;7.80;;;;;;;;;;5065948;28;20423;-68
2021/09/09 12:22:55;;;;;;;16.38;8.18;;;;;;;;;;5066572;28;20054;-68
2021/09/09 12:25:30;;;;;;;16.70;7.93;;;;;;;;;;5072945;28;20131;-68
2021/09/09 12:27:59;;;;;;;12.93;7.72;;;;;;;;;;5074081;28;20025;-68
2021/09/09 12:30:26;;;;;;;10.55;6.70;;;;;;;;;;5071352;28;20040;-64
2021/09/09 12:32:52;;;;;;;17.42;7.53;;;;;;;;;;5072448;28;20024;-63
2021/09/09 12:35:20;;;;;;;8.20;6.38;;;;;;;;;;5060932;28;20039;-65
2021/09/09 12:37:59;;;;;;;11.98;6.85;;;;;;;;;;5059567;28;20118;-63
2021/09/09 12:40:44;;;;;;;9.77;6.28;;;;;;;;;;5067725;28;20023;-63
2021/09/09 12:43:42;;;;;;;7.75;5.70;;;;;;;;;;5062342;28;20159;-64
2021/09/09 12:46:24;;;;;;;18.08;5.78;;;;;;;;;;5053497;28;20063;-63
2021/09/09 12:49:02;;;;;;;7.20;5.63;;;;;;;;;;5067207;28;20029;-63
2021/09/09 12:51:28;;;;;;;11.30;6.00;;;;;;;;;;5073796;28;20056;-63
2021/09/09 12:53:55;;;;;;;11.25;5.75;;;;;;;;;;5071708;28;20029;-63
2021/09/09 12:56:21;;;;;;;10.48;5.55;;;;;;;;;;5073779;28;20043;-62
2021/09/09 12:58:47;;;;;;;7.75;5.20;;;;;;;;;;5072807;28;20036;-63
2021/09/09 13:01:13;;;;;;;15.27;6.43;;;;;;;;;;5073744;28;20020;-69
2021/09/09 13:03:39;;;;;;;10.07;5.95;;;;;;;;;;5056054;28;20036;-71
2021/09/09 13:06:09;;;;;;;8.95;5.35;;;;;;;;;;5074301;28;20546;-74
2021/09/09 13:08:35;;;;;;;14.35;5.88;;;;;;;;;;5056405;28;20395;-73
2021/09/09 13:11:02;;;;;;;13.48;6.13;;;;;;;;;;5073302;28;20028;-67
2021/09/09 13:13:30;;;;;;;18.52;5.43;;;;;;;;;;5044578;28;20029;-67
2021/09/09 13:15:56;;;;;;;11.75;5.65;;;;;;;;;;5040245;28;20105;-67
2021/09/09 13:18:22;;;;;;;10.13;5.00;;;;;;;;;;5059503;28;20082;-67
2021/09/09 13:20:48;;;;;;;14.88;4.55;;;;;;;;;;5073756;28;20031;-67
2021/09/09 13:23:15;;;;;;;24.67;4.78;;;;;;;;;;5072936;28;20617;-67
2021/09/09 13:25:41;;;;;;;13.20;4.55;;;;;;;;;;5053038;28;20029;-65
2021/09/09 13:28:08;;;;;;;11.02;4.72;;;;;;;;;;5035546;28;20032;-67
2021/09/09 13:30:35;;;;;;;12.73;4.50;;;;;;;;;;5053105;28;20071;-68
2021/09/09 13:33:01;;;;;;;8.50;3.95;;;;;;;;;;5052777;28;20121;-68
2021/09/09 13:35:28;;;;;;;9.77;3.60;;;;;;;;;;5035314;28;20021;-67
2021/09/09 13:37:54;;;;;;;9.77;3.13;;;;;;;;;;5035187;28;20057;-73
2021/09/09 13:40:20;;;;;;;6.65;3.35;;;;;;;;;;5049852;28;20025;-72
2021/09/09 13:42:46;;;;;;;11.52;3.15;;;;;;;;;;5051669;28;20031;-72
2021/09/09 13:45:12;;;;;;;7.90;2.67;;;;;;;;;;5053460;28;20021;-72
2021/09/09 13:47:38;;;;;;;9.40;2.60;;;;;;;;;;5035431;28;20025;-71
2021/09/09 13:50:05;;;;;;;6.00;2.25;;;;;;;;;;5053517;28;20021;-69
2021/09/09 13:52:31;;;;;;;5.30;2.13;;;;;;;;;;5053080;28;20063;-72
2021/09/09 13:54:57;;;;;;;5.13;2.42;;;;;;;;;;5052134;28;20020;-72
2021/09/09 13:57:23;;;;;;;7.80;2.15;;;;;;;;;;5048916;28;20174;-71
2021/09/09 13:59:49;;;;;;;12.82;2.10;;;;;;;;;;5053137;28;20020;-73
2021/09/09 14:02:17;;;;;;;16.63;2.35;;;;;;;;;;5053030;28;20393;-72
2021/09/09 14:04:43;;;;;;;17.30;2.35;;;;;;;;;;5053279;28;20528;-73
2021/09/09 14:07:09;;;;;;;7.13;2.05;;;;;;;;;;5032037;28;20068;-74
2021/09/09 14:09:35;;;;;;;13.18;2.15;;;;;;;;;;5032059;28;20474;-73
2021/09/09 14:12:01;;;;;;;5.25;1.90;;;;;;;;;;5033356;28;20017;-73
2021/09/09 14:14:28;;;;;;;6.28;2.00;;;;;;;;;;5033174;28;20096;-74
2021/09/09 14:16:54;;;;;;;7.63;2.03;;;;;;;;;;5044516;28;20036;-73
2021/09/09 14:19:20;;;;;;;7.13;1.95;;;;;;;;;;5053796;28;20099;-74
2021/09/09 14:21:46;;;;;;;9.80;1.70;;;;;;;;;;5035271;28;20033;-73